sensor_id;sensor_type;location;lat;lon;timestamp;P1;durP1;ratioP1;P2;durP2;ratioP2
42414;SDS011;28058;46.344;17.786;2022-09-17T13:36:47;12.00;;;7.00;;
42414;SDS011;28058;46.344;17.786;2022-09-17T13:42:17;5.85;;;4.78;;
42414;SDS011;28058;46.344;17.786;2022-09-17T13:44:46;6.05;;;3.83;;
42414;SDS011;28058;46.344;17.786;2022-09-17T13:52:54;8.25;;;4.82;;
42414;SDS011;28058;46.344;17.786;2022-09-17T14:05:54;6.40;;;4.38;;
42414;SDS011;28058;46.344;17.786;2022-09-17T14:08:28;6.63;;;4.70;;
42414;SDS011;28058;46.344;17.786;2022-09-17T14:11:00;5.35;;;4.70;;
42414;SDS011;28058;46.344;17.786;2022-09-17T14:21:43;6.72;;;4.70;;
42414;SDS011;28058;46.344;17.786;2022-09-17T14:32:57;8.40;;;5.38;;
42414;SDS011;28058;46.344;17.786;2022-09-17T14:35:30;4.90;;;4.40;;
42414;SDS011;28058;46.344;17.786;2022-09-17T14:38:04;9.10;;;4.70;;
42414;SDS011;28058;46.344;17.786;2022-09-17T14:40:34;9.88;;;5.43;;
42414;SDS011;28058;46.344;17.786;2022-09-17T14:46:10;8.13;;;5.95;;
42414;SDS011;28058;46.344;17.786;2022-09-17T14:48:50;8.53;;;5.23;;
42414;SDS011;28058;46.344;17.786;2022-09-17T14:56:15;6.43;;;4.78;;
42414;SDS011;28058;46.344;17.786;2022-09-17T14:58:47;7.32;;;4.88;;
42414;SDS011;28058;46.344;17.786;2022-09-17T15:01:21;10.65;;;5.15;;
42414;SDS011;28058;46.344;17.786;2022-09-17T15:06:41;6.47;;;5.10;;
42414;SDS011;28058;46.344;17.786;2022-09-17T15:09:15;8.82;;;5.88;;
42414;SDS011;28058;46.344;17.786;2022-09-17T15:11:43;8.27;;;6.03;;
42414;SDS011;28058;46.344;17.786;2022-09-17T15:14:17;9.23;;;6.95;;
42414;SDS011;28058;46.344;17.786;2022-09-17T15:16:48;13.05;;;6.65;;
42414;SDS011;28058;46.344;17.786;2022-09-17T15:22:12;11.13;;;7.40;;
42414;SDS011;28058;46.344;17.786;2022-09-17T15:25:08;9.82;;;8.15;;
42414;SDS011;28058;46.344;17.786;2022-09-17T15:27:43;10.73;;;8.65;;
42414;SDS011;28058;46.344;17.786;2022-09-17T15:37:56;14.55;;;10.52;;
42414;SDS011;28058;46.344;17.786;2022-09-17T15:40:43;12.35;;;11.07;;
42414;SDS011;28058;46.344;17.786;2022-09-17T15:43:20;22.92;;;20.67;;
42414;SDS011;28058;46.344;17.786;2022-09-17T15:45:54;27.83;;;25.20;;
42414;SDS011;28058;46.344;17.786;2022-09-17T15:48:33;28.05;;;25.25;;
42414;SDS011;28058;46.344;17.786;2022-09-17T15:51:03;15.93;;;14.20;;
42414;SDS011;28058;46.344;17.786;2022-09-17T15:53:33;20.52;;;17.48;;
42414;SDS011;28058;46.344;17.786;2022-09-17T15:58:36;12.40;;;8.82;;
42414;SDS011;28058;46.344;17.786;2022-09-17T16:11:22;11.05;;;8.43;;
42414;SDS011;28058;46.344;17.786;2022-09-17T16:13:55;25.98;;;21.95;;
42414;SDS011;28058;46.344;17.786;2022-09-17T16:19:01;17.73;;;13.52;;
42414;SDS011;28058;46.344;17.786;2022-09-17T16:21:28;70.00;;;54.88;;
42414;SDS011;28058;46.344;17.786;2022-09-17T16:23:56;178.63;;;104.10;;
42414;SDS011;28058;46.344;17.786;2022-09-17T16:26:32;26.02;;;19.23;;
42414;SDS011;28058;46.344;17.786;2022-09-17T16:29:03;66.60;;;43.58;;
42414;SDS011;28058;46.344;17.786;2022-09-17T16:31:33;90.65;;;48.80;;
42414;SDS011;28058;46.344;17.786;2022-09-17T16:34:00;34.22;;;20.75;;
42414;SDS011;28058;46.344;17.786;2022-09-17T16:36:27;19.02;;;12.95;;
42414;SDS011;28058;46.344;17.786;2022-09-17T16:38:56;22.48;;;20.17;;
42414;SDS011;28058;46.344;17.786;2022-09-17T16:41:23;11.20;;;8.52;;
42414;SDS011;28058;46.344;17.786;2022-09-17T16:43:50;18.55;;;11.82;;
42414;SDS011;28058;46.344;17.786;2022-09-17T16:46:17;99.78;;;80.57;;
42414;SDS011;28058;46.344;17.786;2022-09-17T16:48:44;45.85;;;33.97;;
42414;SDS011;28058;46.344;17.786;2022-09-17T16:51:15;49.47;;;30.67;;
42414;SDS011;28058;46.344;17.786;2022-09-17T16:53:41;14.60;;;11.90;;
42414;SDS011;28058;46.344;17.786;2022-09-17T16:56:09;21.92;;;13.60;;
42414;SDS011;28058;46.344;17.786;2022-09-17T16:58:40;288.73;;;173.85;;
42414;SDS011;28058;46.344;17.786;2022-09-17T17:01:14;48.60;;;24.08;;
42414;SDS011;28058;46.344;17.786;2022-09-17T17:03:41;106.47;;;54.53;;
42414;SDS011;28058;46.344;17.786;2022-09-17T17:06:17;67.68;;;38.85;;
42414;SDS011;28058;46.344;17.786;2022-09-17T17:08:46;37.45;;;25.52;;
42414;SDS011;28058;46.344;17.786;2022-09-17T17:11:14;79.65;;;37.47;;
42414;SDS011;28058;46.344;17.786;2022-09-17T17:13:41;160.70;;;65.40;;
42414;SDS011;28058;46.344;17.786;2022-09-17T17:16:09;228.70;;;87.47;;
42414;SDS011;28058;46.344;17.786;2022-09-17T17:18:37;404.13;;;151.82;;
42414;SDS011;28058;46.344;17.786;2022-09-17T17:21:08;592.60;;;201.02;;
42414;SDS011;28058;46.344;17.786;2022-09-17T17:23:36;448.75;;;136.38;;
42414;SDS011;28058;46.344;17.786;2022-09-17T17:26:03;55.53;;;19.00;;
42414;SDS011;28058;46.344;17.786;2022-09-17T17:28:30;14.75;;;6.38;;
42414;SDS011;28058;46.344;17.786;2022-09-17T17:31:01;32.50;;;10.73;;
42414;SDS011;28058;46.344;17.786;2022-09-17T17:33:29;19.00;;;8.45;;
42414;SDS011;28058;46.344;17.786;2022-09-17T17:36:00;10.20;;;5.90;;
42414;SDS011;28058;46.344;17.786;2022-09-17T17:38:33;9.07;;;6.25;;
42414;SDS011;28058;46.344;17.786;2022-09-17T17:41:03;9.57;;;7.82;;
42414;SDS011;28058;46.344;17.786;2022-09-17T17:43:32;12.73;;;8.18;;
42414;SDS011;28058;46.344;17.786;2022-09-17T17:46:00;13.70;;;9.32;;
42414;SDS011;28058;46.344;17.786;2022-09-17T17:48:27;13.55;;;8.80;;
42414;SDS011;28058;46.344;17.786;2022-09-17T17:51:00;12.95;;;7.93;;
42414;SDS011;28058;46.344;17.786;2022-09-17T17:53:28;12.07;;;7.53;;
42414;SDS011;28058;46.344;17.786;2022-09-17T17:55:57;12.48;;;8.27;;
42414;SDS011;28058;46.344;17.786;2022-09-17T17:58:25;9.80;;;6.97;;
42414;SDS011;28058;46.344;17.786;2022-09-17T18:00:52;11.65;;;8.20;;
42414;SDS011;28058;46.344;17.786;2022-09-17T18:03:20;9.43;;;6.45;;
42414;SDS011;28058;46.344;17.786;2022-09-17T18:05:51;10.13;;;6.15;;
42414;SDS011;28058;46.344;17.786;2022-09-17T18:08:18;8.73;;;5.88;;
42414;SDS011;28058;46.344;17.786;2022-09-17T18:10:53;6.10;;;4.57;;
42414;SDS011;28058;46.344;17.786;2022-09-17T18:13:23;9.18;;;5.30;;
42414;SDS011;28058;46.344;17.786;2022-09-17T18:15:50;6.22;;;5.03;;
42414;SDS011;28058;46.344;17.786;2022-09-17T18:18:25;8.25;;;5.07;;
42414;SDS011;28058;46.344;17.786;2022-09-17T18:20:59;9.43;;;5.95;;
42414;SDS011;28058;46.344;17.786;2022-09-17T18:23:28;7.68;;;5.47;;
42414;SDS011;28058;46.344;17.786;2022-09-17T18:25:55;8.30;;;5.70;;
42414;SDS011;28058;46.344;17.786;2022-09-17T18:28:24;8.88;;;5.20;;
42414;SDS011;28058;46.344;17.786;2022-09-17T18:30:52;6.47;;;5.63;;
42414;SDS011;28058;46.344;17.786;2022-09-17T18:33:22;7.07;;;5.35;;
42414;SDS011;28058;46.344;17.786;2022-09-17T18:35:51;7.07;;;5.07;;
42414;SDS011;28058;46.344;17.786;2022-09-17T18:40:49;6.70;;;4.78;;
42414;SDS011;28058;46.344;17.786;2022-09-17T18:43:17;8.57;;;4.93;;
42414;SDS011;28058;46.344;17.786;2022-09-17T18:45:53;9.50;;;4.78;;
42414;SDS011;28058;46.344;17.786;2022-09-17T18:48:22;7.72;;;4.72;;
42414;SDS011;28058;46.344;17.786;2022-09-17T18:50:57;7.78;;;4.35;;
42414;SDS011;28058;46.344;17.786;2022-09-17T18:53:28;8.85;;;5.32;;
42414;SDS011;28058;46.344;17.786;2022-09-17T18:55:58;10.82;;;6.00;;
42414;SDS011;28058;46.344;17.786;2022-09-17T18:58:33;29.95;;;10.63;;
42414;SDS011;28058;46.344;17.786;2022-09-17T19:01:03;13.57;;;6.53;;
42414;SDS011;28058;46.344;17.786;2022-09-17T19:03:31;8.50;;;4.80;;
42414;SDS011;28058;46.344;17.786;2022-09-17T19:06:01;15.10;;;6.90;;
42414;SDS011;28058;46.344;17.786;2022-09-17T19:08:30;8.13;;;4.93;;
42414;SDS011;28058;46.344;17.786;2022-09-17T19:10:57;6.53;;;4.68;;
42414;SDS011;28058;46.344;17.786;2022-09-17T19:13:24;7.97;;;5.03;;
42414;SDS011;28058;46.344;17.786;2022-09-17T19:15:56;6.45;;;4.40;;
42414;SDS011;28058;46.344;17.786;2022-09-17T19:18:24;7.30;;;4.30;;
42414;SDS011;28058;46.344;17.786;2022-09-17T19:20:59;6.45;;;4.70;;
42414;SDS011;28058;46.344;17.786;2022-09-17T19:23:27;5.90;;;4.85;;
42414;SDS011;28058;46.344;17.786;2022-09-17T19:25:56;5.35;;;4.15;;
42414;SDS011;28058;46.344;17.786;2022-09-17T19:28:29;7.60;;;4.72;;
42414;SDS011;28058;46.344;17.786;2022-09-17T19:30:56;6.55;;;4.55;;
42414;SDS011;28058;46.344;17.786;2022-09-17T19:33:23;7.97;;;4.50;;
42414;SDS011;28058;46.344;17.786;2022-09-17T19:35:50;7.35;;;4.45;;
42414;SDS011;28058;46.344;17.786;2022-09-17T19:38:17;8.88;;;4.47;;
42414;SDS011;28058;46.344;17.786;2022-09-17T19:40:53;5.68;;;4.22;;
42414;SDS011;28058;46.344;17.786;2022-09-17T19:43:21;7.90;;;4.80;;
42414;SDS011;28058;46.344;17.786;2022-09-17T19:45:48;8.02;;;4.75;;
42414;SDS011;28058;46.344;17.786;2022-09-17T19:48:14;5.93;;;4.30;;
42414;SDS011;28058;46.344;17.786;2022-09-17T19:50:51;9.85;;;5.25;;
42414;SDS011;28058;46.344;17.786;2022-09-17T19:53:18;10.40;;;4.82;;
42414;SDS011;28058;46.344;17.786;2022-09-17T19:55:45;7.45;;;4.47;;
42414;SDS011;28058;46.344;17.786;2022-09-17T19:58:13;9.73;;;5.22;;
42414;SDS011;28058;46.344;17.786;2022-09-17T20:00:40;8.88;;;5.18;;
42414;SDS011;28058;46.344;17.786;2022-09-17T20:03:07;7.80;;;4.32;;
42414;SDS011;28058;46.344;17.786;2022-09-17T20:05:35;9.80;;;5.68;;
42414;SDS011;28058;46.344;17.786;2022-09-17T20:08:02;6.63;;;4.55;;
42414;SDS011;28058;46.344;17.786;2022-09-17T20:10:29;7.20;;;5.00;;
42414;SDS011;28058;46.344;17.786;2022-09-17T20:12:59;7.22;;;4.95;;
42414;SDS011;28058;46.344;17.786;2022-09-17T20:15:25;6.55;;;4.30;;
42414;SDS011;28058;46.344;17.786;2022-09-17T20:17:52;6.80;;;4.78;;
42414;SDS011;28058;46.344;17.786;2022-09-17T20:20:19;9.07;;;5.00;;
42414;SDS011;28058;46.344;17.786;2022-09-17T20:22:46;6.07;;;4.35;;
42414;SDS011;28058;46.344;17.786;2022-09-17T20:25:13;6.43;;;4.22;;
42414;SDS011;28058;46.344;17.786;2022-09-17T20:27:40;4.45;;;4.05;;
42414;SDS011;28058;46.344;17.786;2022-09-17T20:30:07;8.63;;;3.70;;
42414;SDS011;28058;46.344;17.786;2022-09-17T20:32:34;5.20;;;3.80;;
42414;SDS011;28058;46.344;17.786;2022-09-17T20:35:01;4.63;;;3.70;;
42414;SDS011;28058;46.344;17.786;2022-09-17T20:37:28;4.88;;;3.53;;
42414;SDS011;28058;46.344;17.786;2022-09-17T20:40:15;5.55;;;3.05;;
42414;SDS011;28058;46.344;17.786;2022-09-17T20:42:41;3.70;;;2.72;;
42414;SDS011;28058;46.344;17.786;2022-09-17T20:45:08;4.82;;;2.92;;
42414;SDS011;28058;46.344;17.786;2022-09-17T20:47:35;3.65;;;2.20;;
42414;SDS011;28058;46.344;17.786;2022-09-17T20:50:02;3.75;;;2.30;;
42414;SDS011;28058;46.344;17.786;2022-09-17T20:52:29;3.22;;;2.00;;
42414;SDS011;28058;46.344;17.786;2022-09-17T20:54:56;4.10;;;2.10;;
42414;SDS011;28058;46.344;17.786;2022-09-17T20:57:22;1.98;;;1.65;;
42414;SDS011;28058;46.344;17.786;2022-09-17T20:59:50;3.60;;;1.50;;
42414;SDS011;28058;46.344;17.786;2022-09-17T21:02:22;4.18;;;1.50;;
42414;SDS011;28058;46.344;17.786;2022-09-17T21:04:50;2.25;;;1.60;;
42414;SDS011;28058;46.344;17.786;2022-09-17T21:07:19;3.70;;;2.20;;
42414;SDS011;28058;46.344;17.786;2022-09-17T21:09:46;2.22;;;1.40;;
42414;SDS011;28058;46.344;17.786;2022-09-17T21:12:13;2.35;;;1.38;;
42414;SDS011;28058;46.344;17.786;2022-09-17T21:14:39;3.58;;;1.20;;
42414;SDS011;28058;46.344;17.786;2022-09-17T21:17:06;2.67;;;1.30;;
42414;SDS011;28058;46.344;17.786;2022-09-17T21:19:33;4.20;;;1.13;;
42414;SDS011;28058;46.344;17.786;2022-09-17T21:22:00;1.40;;;1.00;;
42414;SDS011;28058;46.344;17.786;2022-09-17T21:24:27;1.88;;;1.15;;
42414;SDS011;28058;46.344;17.786;2022-09-17T21:26:53;3.58;;;1.00;;
42414;SDS011;28058;46.344;17.786;2022-09-17T21:29:20;1.70;;;0.88;;
42414;SDS011;28058;46.344;17.786;2022-09-17T21:31:47;2.35;;;1.38;;
42414;SDS011;28058;46.344;17.786;2022-09-17T21:34:14;2.92;;;1.20;;
42414;SDS011;28058;46.344;17.786;2022-09-17T21:36:41;2.22;;;1.08;;
42414;SDS011;28058;46.344;17.786;2022-09-17T21:39:14;1.40;;;1.00;;
42414;SDS011;28058;46.344;17.786;2022-09-17T21:41:42;4.85;;;1.45;;
42414;SDS011;28058;46.344;17.786;2022-09-17T21:44:10;1.85;;;0.85;;
42414;SDS011;28058;46.344;17.786;2022-09-17T21:46:38;7.57;;;2.15;;
42414;SDS011;28058;46.344;17.786;2022-09-17T21:49:05;2.28;;;1.15;;
42414;SDS011;28058;46.344;17.786;2022-09-17T21:51:34;4.40;;;2.10;;
42414;SDS011;28058;46.344;17.786;2022-09-17T21:54:04;1.40;;;0.93;;
42414;SDS011;28058;46.344;17.786;2022-09-17T21:56:35;2.85;;;1.10;;
42414;SDS011;28058;46.344;17.786;2022-09-17T21:59:03;1.95;;;1.00;;
42414;SDS011;28058;46.344;17.786;2022-09-17T22:01:32;2.80;;;0.90;;
42414;SDS011;28058;46.344;17.786;2022-09-17T22:04:09;2.92;;;1.40;;
42414;SDS011;28058;46.344;17.786;2022-09-17T22:06:38;3.30;;;1.20;;
42414;SDS011;28058;46.344;17.786;2022-09-17T22:09:06;1.55;;;0.90;;
42414;SDS011;28058;46.344;17.786;2022-09-17T22:14:08;1.23;;;0.88;;
42414;SDS011;28058;46.344;17.786;2022-09-17T22:16:41;2.35;;;1.17;;
42414;SDS011;28058;46.344;17.786;2022-09-17T22:19:10;2.92;;;1.30;;
42414;SDS011;28058;46.344;17.786;2022-09-17T22:21:40;3.08;;;1.13;;
42414;SDS011;28058;46.344;17.786;2022-09-17T22:24:10;1.17;;;0.90;;
42414;SDS011;28058;46.344;17.786;2022-09-17T22:26:38;2.88;;;1.40;;
42414;SDS011;28058;46.344;17.786;2022-09-17T22:31:39;4.05;;;1.10;;
42414;SDS011;28058;46.344;17.786;2022-09-17T22:34:07;2.03;;;0.90;;
42414;SDS011;28058;46.344;17.786;2022-09-17T22:36:38;2.58;;;1.10;;
42414;SDS011;28058;46.344;17.786;2022-09-17T22:39:05;2.95;;;1.08;;
42414;SDS011;28058;46.344;17.786;2022-09-17T22:41:33;2.05;;;1.10;;
42414;SDS011;28058;46.344;17.786;2022-09-17T22:44:03;1.98;;;1.40;;
42414;SDS011;28058;46.344;17.786;2022-09-17T22:46:36;2.25;;;1.40;;
42414;SDS011;28058;46.344;17.786;2022-09-17T22:49:07;2.40;;;1.52;;
42414;SDS011;28058;46.344;17.786;2022-09-17T22:51:35;3.63;;;1.40;;
42414;SDS011;28058;46.344;17.786;2022-09-17T22:54:02;5.38;;;1.48;;
42414;SDS011;28058;46.344;17.786;2022-09-17T22:56:29;1.75;;;1.30;;
42414;SDS011;28058;46.344;17.786;2022-09-17T22:58:56;1.80;;;1.27;;
42414;SDS011;28058;46.344;17.786;2022-09-17T23:01:24;2.67;;;1.42;;
42414;SDS011;28058;46.344;17.786;2022-09-17T23:03:56;4.57;;;1.60;;
42414;SDS011;28058;46.344;17.786;2022-09-17T23:06:25;4.85;;;2.20;;
42414;SDS011;28058;46.344;17.786;2022-09-17T23:08:54;3.65;;;2.92;;
42414;SDS011;28058;46.344;17.786;2022-09-17T23:11:25;4.72;;;2.53;;
42414;SDS011;28058;46.344;17.786;2022-09-17T23:13:54;5.88;;;2.50;;
42414;SDS011;28058;46.344;17.786;2022-09-17T23:16:23;3.95;;;2.90;;
42414;SDS011;28058;46.344;17.786;2022-09-17T23:18:50;5.45;;;3.25;;
42414;SDS011;28058;46.344;17.786;2022-09-17T23:21:17;6.80;;;3.75;;
42414;SDS011;28058;46.344;17.786;2022-09-17T23:23:46;5.90;;;2.88;;
42414;SDS011;28058;46.344;17.786;2022-09-17T23:26:15;6.32;;;3.92;;
42414;SDS011;28058;46.344;17.786;2022-09-17T23:28:44;5.25;;;3.65;;
42414;SDS011;28058;46.344;17.786;2022-09-17T23:31:12;4.28;;;3.72;;
42414;SDS011;28058;46.344;17.786;2022-09-17T23:33:41;8.15;;;4.43;;
42414;SDS011;28058;46.344;17.786;2022-09-17T23:36:10;7.45;;;4.45;;
42414;SDS011;28058;46.344;17.786;2022-09-17T23:38:39;4.57;;;4.18;;
42414;SDS011;28058;46.344;17.786;2022-09-17T23:41:18;9.13;;;4.90;;
42414;SDS011;28058;46.344;17.786;2022-09-17T23:43:48;8.68;;;4.85;;
42414;SDS011;28058;46.344;17.786;2022-09-17T23:46:16;6.88;;;4.90;;
42414;SDS011;28058;46.344;17.786;2022-09-17T23:48:44;6.93;;;4.75;;
42414;SDS011;28058;46.344;17.786;2022-09-17T23:51:12;7.00;;;5.80;;
42414;SDS011;28058;46.344;17.786;2022-09-17T23:53:39;9.25;;;6.55;;
42414;SDS011;28058;46.344;17.786;2022-09-17T23:56:10;8.65;;;5.95;;
42414;SDS011;28058;46.344;17.786;2022-09-17T23:58:39;9.02;;;6.07;;
